Flight Track Log - Related Links

Times and Time Zones

All times are in EDT time to prevent confusion due to time zone crossing. See the ASQ5389 flight status page for this flight to view local times or setup timezone preferences in your user account.

Time Position Orientation Groundspeed Altitude Reporting Facility
EDT Latitude Longitude Course Direction KTS MPH feet Rate Location/Type
Wed 12:04:16 PM 35.8403 -78.8589 234° Southwest 195 224 3,500  Level Washington Center
Wed 12:05:29 PM 35.8400 -78.9433 270° West 231 266 6,200 2,109 Climbing Washington Center
Wed 12:06:24 PM 35.8356 -79.0253 266° West 273 314 8,000 2,256 Climbing Washington Center
Wed 12:07:26 PM 35.8367 -79.1278 271° West 291 335 10,600 1,820 Climbing Washington Center
Wed 12:08:26 PM 35.8361 -79.2225 270° West 298 343 11,700 1,550 Climbing Washington Center
Wed 12:09:26 PM 35.8319 -79.3506 268° West 335 386 13,700 1,770 Climbing Washington Center
Wed 12:11:29 PM 35.8081 -79.5756 263° West 357 411 17,100 1,410 Climbing Atlanta Center
Wed 12:12:29 PM 35.7875 -79.6972 258° West 334 384 18,000 950 Climbing Atlanta Center
Wed 12:13:29 PM 35.7686 -79.8133 259° West 340 391 19,000 1,100 Climbing Atlanta Center
Wed 12:14:29 PM 35.7478 -79.9372 258° West 357 411 20,200 1,150 Climbing Atlanta Center
Wed 12:15:29 PM 35.7264 -80.0456 256° West 357 411 21,300 1,050 Climbing Atlanta Center
Wed 12:16:29 PM 35.7072 -80.1694 259° West 362 417 22,300 950 Climbing Atlanta Center
Wed 12:17:29 PM 35.6861 -80.2956 258° West 368 423 23,200 850 Climbing Atlanta Center
Wed 12:18:29 PM 35.6711 -80.4217 262° West 380 437 24,000 400 Climbing Atlanta Center
Wed 12:19:29 PM 35.6542 -80.5553 261° West 388 447 24,000  Level Atlanta Center
Wed 12:20:29 PM 35.6353 -80.7042 261° West 396 456 24,000 450 Level Atlanta Center
Wed 12:21:29 PM 35.6161 -80.8431 260° West 413 475 24,900 1,250 Climbing Atlanta Center
Wed 12:22:29 PM 35.5986 -80.9714 261° West 402 463 26,500 1,200 Climbing Atlanta Center
Wed 12:23:29 PM 35.5808 -81.0944 260° West 381 438 27,300 750 Climbing Atlanta Center
Wed 12:24:29 PM 35.5647 -81.2075 260° West 376 433 28,000 350 Climbing Atlanta Center
Wed 12:25:29 PM 35.5447 -81.3486 260° West 391 450 28,000  Level Atlanta Center
Wed 12:26:29 PM 35.5308 -81.4792 263° West 406 467 28,000  Level Atlanta Center
Wed 12:27:29 PM 35.5106 -81.6125 259° West 406 467 28,000  Level Atlanta Center
Wed 12:28:29 PM 35.4925 -81.7558 261° West 406 467 28,000  Level Atlanta Center
Wed 12:29:29 PM 35.4742 -81.8889 260° West 400 460 28,000  Level Atlanta Center
Wed 12:30:29 PM 35.4556 -82.0194 260° West 394 453 28,000  Level Atlanta Center
Wed 12:31:29 PM 35.4367 -82.1475 260° West 394 453 28,000  Level Atlanta Center
Wed 12:32:29 PM 35.4178 -82.2753 260° West 389 448 28,000  Level Atlanta Center
Wed 12:33:29 PM 35.3986 -82.4056 260° West 389 448 28,000  Level Atlanta Center
Wed 12:34:29 PM 35.3794 -82.5308 259° West 389 448 28,000  Level Atlanta Center
Wed 12:35:29 PM 35.3639 -82.6356 260° West 384 442 28,000  Level Atlanta Center
Wed 12:36:29 PM 35.3425 -82.7758 259° West 376 433 28,000  Level Atlanta Center
Wed 12:37:29 PM 35.3289 -82.8753 261° West 371 427 28,000  Level Atlanta Center
Wed 12:38:29 PM 35.3053 -83.0258 259° West 371 427 28,000  Level Atlanta Center
Wed 12:39:29 PM 35.2853 -83.1508 259° West 376 433 28,000  Level Atlanta Center
Wed 12:40:29 PM 35.2672 -83.2656 259° West 368 423 28,000  Level Atlanta Center
Wed 12:41:29 PM 35.2514 -83.3850 261° West 373 429 28,000  Level Atlanta Center
Wed 12:42:29 PM 35.2311 -83.5072 259° West 373 429 28,000  Level Atlanta Center
Wed 12:43:29 PM 35.2106 -83.6319 259° West 373 429 28,000  Level Atlanta Center
Wed 12:44:29 PM 35.1922 -83.7517 259° West 373 429 28,000  Level Atlanta Center
Wed 12:45:29 PM 35.1736 -83.8736 259° West 373 429 28,000  Level Atlanta Center
Wed 12:46:29 PM 35.1528 -83.9931 258° West 373 429 28,000  Level Atlanta Center
Wed 12:47:29 PM 35.1342 -84.1175 260° West 373 429 28,000  Level Atlanta Center
Wed 12:48:29 PM 35.1131 -84.2394 258° West 373 429 28,000  Level Atlanta Center
Wed 12:49:29 PM 35.0919 -84.3611 258° West 373 429 28,000  Level Atlanta Center
Wed 12:50:29 PM 35.0728 -84.4853 259° West 373 429 28,000  Level Atlanta Center
Wed 12:51:29 PM 35.0536 -84.6097 259° West 373 429 28,000  Level Atlanta Center
Wed 12:52:29 PM 35.0297 -84.7464 258° West 373 429 28,000  Level Atlanta Center
Wed 12:53:29 PM 35.0081 -84.8731 258° West 373 429 28,000  Level Atlanta Center
Wed 12:54:29 PM 34.9864 -84.9969 258° West 373 429 28,000  Level Atlanta Center
Wed 12:55:29 PM 34.9667 -85.1236 259° West 373 429 28,000  Level Atlanta Center
Wed 12:56:29 PM 34.9508 -85.2500 261° West 378 435 28,000  Level Atlanta Center
Wed 12:57:29 PM 34.9369 -85.3792 263° West 383 441 28,000  Level Atlanta Center
Wed 12:58:29 PM 34.9231 -85.5081 263° West 383 441 28,000  Level Atlanta Center
Wed 12:59:29 PM 34.9089 -85.6344 262° West 389 448 28,000  Level Atlanta Center
Wed 01:00:29 PM 34.8967 -85.7658 264° West 389 448 28,000  Level Atlanta Center
Wed 01:01:29 PM 34.8844 -85.8794 263° West 389 448 28,000  Level Atlanta Center
Wed 01:02:29 PM 34.8722 -86.0083 263° West 389 448 28,000  Level Atlanta Center
Wed 01:03:29 PM 34.8594 -86.1397 263° West 389 448 28,000  Level Atlanta Center
Wed 01:04:29 PM 34.8447 -86.2711 262° West 389 448 28,000  Level Atlanta Center
Wed 01:05:29 PM 34.8297 -86.3997 262° West 389 448 28,000  Level Atlanta Center
Wed 01:06:29 PM 34.8147 -86.5308 262° West 389 448 28,000  Level Atlanta Center
Wed 01:07:53 PM 34.7931 -86.7156 262° West 393 452 28,000  Level Memphis Center
Wed 01:08:53 PM 34.7781 -86.8453 262° West 393 452 28,000  Level Memphis Center
Wed 01:09:53 PM 34.7594 -86.9978 262° West 405 466 28,000  Level Memphis Center
Wed 01:10:53 PM 34.7481 -87.1144 263° West 405 466 28,000  Level Memphis Center
Wed 01:11:53 PM 34.7344 -87.2439 263° West 399 459 28,000  Level Memphis Center
Wed 01:12:53 PM 34.7189 -87.3758 262° West 389 448 28,000  Level Memphis Center
Wed 01:13:53 PM 34.7053 -87.5050 263° West 394 453 28,000  Level Memphis Center
Wed 01:14:53 PM 34.7042 -87.6364 269° West 389 448 28,000 -50 Level Memphis Center
Wed 01:15:53 PM 34.6944 -87.7731 265° West 394 453 27,900 -450 Descending Memphis Center
Wed 01:16:53 PM 34.6889 -87.9072 267° West 399 459 27,100 -800 Descending Memphis Center
Wed 01:17:53 PM 34.6831 -88.0336 267° West 399 459 26,300 -550 Descending Memphis Center
Wed 01:18:53 PM 34.6769 -88.1625 267° West 389 448 26,000 -600 Descending Memphis Center
Wed 01:19:53 PM 34.6772 -88.2989 270° West 389 448 25,100 -750 Descending Memphis Center
Wed 01:20:53 PM 34.6836 -88.4353 273° West 399 459 24,500 -550 Descending Memphis Center
Wed 01:21:53 PM 34.6897 -88.5739 273° West 410 472 24,000 -250 Descending Memphis Center
Wed 01:22:53 PM 34.6981 -88.7128 274° West 410 472 24,000 -550 Level Memphis Center
Wed 01:23:53 PM 34.7019 -88.8489 272° West 410 472 22,900 -1,700 Descending Memphis Center
Wed 01:24:53 PM 34.7075 -88.9828 273° West 404 465 20,600 -2,300 Descending Memphis Center
Wed 01:25:53 PM 34.7131 -89.1064 273° West 391 450 18,300 -2,150 Descending Memphis Center
Wed 01:26:53 PM 34.7164 -89.2278 272° West 373 429 16,300 -1,450 Descending Memphis Center
Wed 01:27:53 PM 34.7339 -89.3436 280° West 361 415 15,400 -750 Descending Memphis Center
Wed 01:28:53 PM 34.7642 -89.4697 286° West 356 410 14,800 -550 Descending Memphis Center
Wed 01:29:53 PM 34.8086 -89.5756 297° West 355 409 14,300 -400 Descending Memphis Center
Wed 01:30:53 PM 34.8594 -89.6714 303° West 350 403 14,000 -1,300 Descending Memphis Center
Wed 01:31:53 PM 34.9036 -89.7619 301° West 333 383 11,700 -1,600 Descending Memphis Center
Wed 01:32:53 PM 34.9394 -89.8328 302° West 309 356 10,800 -1,500 Descending Memphis Center
Wed 01:33:53 PM 34.9939 -89.8831 323° Northwest 277 319 8,700 -2,172 Descending Memphis Center
Wed 01:34:49 PM 35.0833 -89.8833 360° North 277 319 6,600 -1,914 Descending KMEM
Wed 01:35:49 PM 35.1500 -89.8833 360° North 248 285 5,000 -1,400 Descending KMEM
Wed 01:36:49 PM 35.2167 -89.8833 360° North 263 303 3,800 -1,165 Descending KMEM
Wed 01:37:32 PM 35.2667 -89.8833 360° North 249 287 3,000 -466 Descending KMEM
Wed 01:38:32 PM 35.3333 -89.8833 360° North 249 287 3,000  Level KMEM
Wed 01:39:43 PM 35.3667 -89.9333 309° West 176 203 3,000  Level KMEM
Wed 01:40:43 PM 35.3333 -89.9667 219° Southwest 183 211 3,000  Level KMEM
Wed 01:41:37 PM 35.2833 -89.9833 195° South 185 213 3,000  Level KMEM
Wed 01:42:37 PM 35.2333 -89.9833 180° South 180 207 3,000  Level KMEM
Wed 01:43:32 PM 35.2000 -89.9667 158° South 152 175 3,000 -421 Level KMEM
Wed 01:44:31 PM 35.1500 -89.9667 180° South 160 184 2,200 -756 Descending KMEM
Wed 01:45:31 PM 35.1000 -89.9667 180° South 153 176 1,500 -700 Descending KMEM
Wed 01:46:31 PM 35.0667 -89.9667 180° South 118 136 800 -700 Descending KMEM
Wed 01:48:00 PM 35.0424 -89.9767 177° South  Level Estimated
Wed 01:55:00 PM 35.0424 -89.9767 177° South  Level Estimated
Wed 01:56:00 PM 35.0424 -89.9767 177° South  Level Estimated

Login

Don't have an account? Register now (free) for customized features, flight alerts, and more!